sensor_id;sensor_type;location;lat;lon;timestamp;P1;durP1;ratioP1;P2;durP2;ratioP2
37559;SDS011;23398;50.928;7.084;2023-05-20T00:02:12;1.58;;;1.27;;
37559;SDS011;23398;50.928;7.084;2023-05-20T00:04:38;2.60;;;1.20;;
37559;SDS011;23398;50.928;7.084;2023-05-20T00:07:05;2.53;;;1.50;;
37559;SDS011;23398;50.928;7.084;2023-05-20T00:09:31;3.00;;;1.30;;
37559;SDS011;23398;50.928;7.084;2023-05-20T00:11:57;1.55;;;1.30;;
37559;SDS011;23398;50.928;7.084;2023-05-20T00:14:22;1.50;;;1.30;;
37559;SDS011;23398;50.928;7.084;2023-05-20T00:16:48;1.35;;;1.25;;
37559;SDS011;23398;50.928;7.084;2023-05-20T00:19:13;2.38;;;1.38;;
37559;SDS011;23398;50.928;7.084;2023-05-20T00:21:39;1.58;;;1.30;;
37559;SDS011;23398;50.928;7.084;2023-05-20T00:24:04;1.92;;;1.20;;
37559;SDS011;23398;50.928;7.084;2023-05-20T00:26:30;1.20;;;1.10;;
37559;SDS011;23398;50.928;7.084;2023-05-20T00:28:56;1.60;;;1.30;;
37559;SDS011;23398;50.928;7.084;2023-05-20T00:31:21;2.67;;;1.38;;
37559;SDS011;23398;50.928;7.084;2023-05-20T00:33:47;2.22;;;1.55;;
37559;SDS011;23398;50.928;7.084;2023-05-20T00:36:12;1.42;;;1.27;;
37559;SDS011;23398;50.928;7.084;2023-05-20T00:38:38;6.63;;;1.40;;
37559;SDS011;23398;50.928;7.084;2023-05-20T00:41:03;1.70;;;1.35;;
37559;SDS011;23398;50.928;7.084;2023-05-20T00:43:29;1.50;;;1.20;;
37559;SDS011;23398;50.928;7.084;2023-05-20T00:45:55;2.05;;;1.20;;
37559;SDS011;23398;50.928;7.084;2023-05-20T00:48:20;1.60;;;1.10;;
37559;SDS011;23398;50.928;7.084;2023-05-20T00:50:46;1.90;;;1.40;;
37559;SDS011;23398;50.928;7.084;2023-05-20T00:53:13;2.10;;;1.10;;
37559;SDS011;23398;50.928;7.084;2023-05-20T00:55:42;1.95;;;1.40;;
37559;SDS011;23398;50.928;7.084;2023-05-20T00:58:08;1.77;;;1.30;;
37559;SDS011;23398;50.928;7.084;2023-05-20T01:00:34;1.98;;;1.30;;
37559;SDS011;23398;50.928;7.084;2023-05-20T01:03:00;2.45;;;1.30;;
37559;SDS011;23398;50.928;7.084;2023-05-20T01:05:26;1.42;;;1.20;;
37559;SDS011;23398;50.928;7.084;2023-05-20T01:07:51;1.60;;;1.30;;
37559;SDS011;23398;50.928;7.084;2023-05-20T01:10:17;1.63;;;1.40;;
37559;SDS011;23398;50.928;7.084;2023-05-20T01:12:45;2.88;;;1.50;;
37559;SDS011;23398;50.928;7.084;2023-05-20T01:15:14;2.92;;;1.30;;
37559;SDS011;23398;50.928;7.084;2023-05-20T01:17:48;2.72;;;1.35;;
37559;SDS011;23398;50.928;7.084;2023-05-20T01:20:16;1.88;;;1.27;;
37559;SDS011;23398;50.928;7.084;2023-05-20T01:22:48;3.03;;;1.63;;
37559;SDS011;23398;50.928;7.084;2023-05-20T01:25:17;1.50;;;1.33;;
37559;SDS011;23398;50.928;7.084;2023-05-20T01:27:42;3.15;;;1.58;;
37559;SDS011;23398;50.928;7.084;2023-05-20T01:30:08;1.50;;;1.40;;
37559;SDS011;23398;50.928;7.084;2023-05-20T01:32:38;2.22;;;1.60;;
37559;SDS011;23398;50.928;7.084;2023-05-20T01:35:07;1.80;;;1.42;;
37559;SDS011;23398;50.928;7.084;2023-05-20T01:37:34;1.60;;;1.20;;
37559;SDS011;23398;50.928;7.084;2023-05-20T01:40:02;2.00;;;1.40;;
37559;SDS011;23398;50.928;7.084;2023-05-20T01:42:31;2.03;;;1.40;;
37559;SDS011;23398;50.928;7.084;2023-05-20T01:44:57;1.40;;;1.23;;
37559;SDS011;23398;50.928;7.084;2023-05-20T01:47:24;1.70;;;1.40;;
37559;SDS011;23398;50.928;7.084;2023-05-20T01:49:49;1.73;;;1.30;;
37559;SDS011;23398;50.928;7.084;2023-05-20T01:52:18;2.80;;;1.27;;
37559;SDS011;23398;50.928;7.084;2023-05-20T01:54:44;1.70;;;1.35;;
37559;SDS011;23398;50.928;7.084;2023-05-20T01:57:15;1.33;;;1.20;;
37559;SDS011;23398;50.928;7.084;2023-05-20T01:59:47;2.80;;;1.42;;
37559;SDS011;23398;50.928;7.084;2023-05-20T02:02:13;1.30;;;1.20;;
37559;SDS011;23398;50.928;7.084;2023-05-20T02:04:39;1.52;;;1.25;;
37559;SDS011;23398;50.928;7.084;2023-05-20T02:07:06;3.55;;;1.50;;
37559;SDS011;23398;50.928;7.084;2023-05-20T02:09:32;2.55;;;1.20;;
37559;SDS011;23398;50.928;7.084;2023-05-20T02:11:57;1.65;;;1.17;;
37559;SDS011;23398;50.928;7.084;2023-05-20T02:14:23;1.83;;;1.13;;
37559;SDS011;23398;50.928;7.084;2023-05-20T02:16:48;2.72;;;1.83;;
37559;SDS011;23398;50.928;7.084;2023-05-20T02:19:14;1.77;;;1.23;;
37559;SDS011;23398;50.928;7.084;2023-05-20T02:21:47;1.45;;;1.20;;
37559;SDS011;23398;50.928;7.084;2023-05-20T02:24:13;1.67;;;1.13;;
37559;SDS011;23398;50.928;7.084;2023-05-20T02:26:38;1.67;;;1.30;;
37559;SDS011;23398;50.928;7.084;2023-05-20T02:29:04;1.42;;;1.10;;
37559;SDS011;23398;50.928;7.084;2023-05-20T02:31:29;1.30;;;1.08;;
37559;SDS011;23398;50.928;7.084;2023-05-20T02:33:55;1.27;;;1.17;;
37559;SDS011;23398;50.928;7.084;2023-05-20T02:36:21;4.40;;;1.52;;
37559;SDS011;23398;50.928;7.084;2023-05-20T02:38:47;1.65;;;1.30;;
37559;SDS011;23398;50.928;7.084;2023-05-20T02:41:12;1.85;;;1.20;;
37559;SDS011;23398;50.928;7.084;2023-05-20T02:43:38;1.67;;;1.20;;
37559;SDS011;23398;50.928;7.084;2023-05-20T02:46:04;1.65;;;1.30;;
37559;SDS011;23398;50.928;7.084;2023-05-20T02:48:30;1.90;;;1.27;;
37559;SDS011;23398;50.928;7.084;2023-05-20T02:50:57;1.40;;;1.20;;
37559;SDS011;23398;50.928;7.084;2023-05-20T02:53:23;4.80;;;1.30;;
37559;SDS011;23398;50.928;7.084;2023-05-20T02:55:49;1.70;;;1.25;;
37559;SDS011;23398;50.928;7.084;2023-05-20T02:58:14;1.73;;;1.35;;
37559;SDS011;23398;50.928;7.084;2023-05-20T03:00:41;2.08;;;1.35;;
37559;SDS011;23398;50.928;7.084;2023-05-20T03:03:07;1.35;;;1.20;;
37559;SDS011;23398;50.928;7.084;2023-05-20T03:05:34;1.48;;;1.30;;
37559;SDS011;23398;50.928;7.084;2023-05-20T03:08:06;1.45;;;1.30;;
37559;SDS011;23398;50.928;7.084;2023-05-20T03:10:33;1.63;;;1.45;;
37559;SDS011;23398;50.928;7.084;2023-05-20T03:13:00;2.05;;;1.55;;
37559;SDS011;23398;50.928;7.084;2023-05-20T03:15:25;1.95;;;1.40;;
37559;SDS011;23398;50.928;7.084;2023-05-20T03:17:51;1.75;;;1.40;;
37559;SDS011;23398;50.928;7.084;2023-05-20T03:20:18;1.77;;;1.45;;
37559;SDS011;23398;50.928;7.084;2023-05-20T03:22:44;2.45;;;1.50;;
37559;SDS011;23398;50.928;7.084;2023-05-20T03:25:10;2.65;;;1.83;;
37559;SDS011;23398;50.928;7.084;2023-05-20T03:27:35;1.60;;;1.50;;
37559;SDS011;23398;50.928;7.084;2023-05-20T03:30:02;1.70;;;1.60;;
37559;SDS011;23398;50.928;7.084;2023-05-20T03:32:28;2.50;;;1.50;;
37559;SDS011;23398;50.928;7.084;2023-05-20T03:34:54;2.67;;;1.60;;
37559;SDS011;23398;50.928;7.084;2023-05-20T03:37:22;2.45;;;1.52;;
37559;SDS011;23398;50.928;7.084;2023-05-20T03:39:47;2.53;;;1.50;;
37559;SDS011;23398;50.928;7.084;2023-05-20T03:42:13;1.88;;;1.63;;
37559;SDS011;23398;50.928;7.084;2023-05-20T03:44:39;1.70;;;1.60;;
37559;SDS011;23398;50.928;7.084;2023-05-20T03:47:04;1.75;;;1.40;;
37559;SDS011;23398;50.928;7.084;2023-05-20T03:49:30;2.17;;;1.50;;
37559;SDS011;23398;50.928;7.084;2023-05-20T03:51:56;1.90;;;1.40;;
37559;SDS011;23398;50.928;7.084;2023-05-20T03:54:21;1.60;;;1.45;;
37559;SDS011;23398;50.928;7.084;2023-05-20T03:56:47;1.45;;;1.30;;
37559;SDS011;23398;50.928;7.084;2023-05-20T03:59:13;1.95;;;1.20;;
37559;SDS011;23398;50.928;7.084;2023-05-20T04:01:39;1.85;;;1.60;;
37559;SDS011;23398;50.928;7.084;2023-05-20T04:04:04;1.50;;;1.40;;
37559;SDS011;23398;50.928;7.084;2023-05-20T04:06:30;2.22;;;1.48;;
37559;SDS011;23398;50.928;7.084;2023-05-20T04:08:57;1.42;;;1.30;;
37559;SDS011;23398;50.928;7.084;2023-05-20T04:11:22;3.45;;;1.50;;
37559;SDS011;23398;50.928;7.084;2023-05-20T04:13:48;2.28;;;1.67;;
37559;SDS011;23398;50.928;7.084;2023-05-20T04:16:14;2.00;;;1.50;;
37559;SDS011;23398;50.928;7.084;2023-05-20T04:18:39;1.77;;;1.50;;
37559;SDS011;23398;50.928;7.084;2023-05-20T04:21:05;1.73;;;1.30;;
37559;SDS011;23398;50.928;7.084;2023-05-20T04:23:32;2.35;;;1.42;;
37559;SDS011;23398;50.928;7.084;2023-05-20T04:25:57;2.22;;;1.70;;
37559;SDS011;23398;50.928;7.084;2023-05-20T04:28:26;2.33;;;1.42;;
37559;SDS011;23398;50.928;7.084;2023-05-20T04:31:00;1.75;;;1.63;;
37559;SDS011;23398;50.928;7.084;2023-05-20T04:33:29;2.88;;;2.00;;
37559;SDS011;23398;50.928;7.084;2023-05-20T04:35:56;3.10;;;2.13;;
37559;SDS011;23398;50.928;7.084;2023-05-20T04:38:26;2.70;;;2.28;;
37559;SDS011;23398;50.928;7.084;2023-05-20T04:40:54;3.35;;;2.22;;
37559;SDS011;23398;50.928;7.084;2023-05-20T04:43:24;2.60;;;2.17;;
37559;SDS011;23398;50.928;7.084;2023-05-20T04:45:50;2.05;;;1.85;;
37559;SDS011;23398;50.928;7.084;2023-05-20T04:48:19;2.10;;;1.90;;
37559;SDS011;23398;50.928;7.084;2023-05-20T04:50:46;2.08;;;1.83;;
37559;SDS011;23398;50.928;7.084;2023-05-20T04:53:13;4.07;;;2.05;;
37559;SDS011;23398;50.928;7.084;2023-05-20T04:55:42;2.15;;;1.95;;
37559;SDS011;23398;50.928;7.084;2023-05-20T04:58:09;2.63;;;2.05;;
37559;SDS011;23398;50.928;7.084;2023-05-20T05:00:48;4.05;;;1.90;;
37559;SDS011;23398;50.928;7.084;2023-05-20T05:03:15;2.63;;;2.00;;
37559;SDS011;23398;50.928;7.084;2023-05-20T05:05:41;2.08;;;1.83;;
37559;SDS011;23398;50.928;7.084;2023-05-20T05:08:10;4.30;;;1.90;;
37559;SDS011;23398;50.928;7.084;2023-05-20T05:10:35;1.80;;;1.55;;
37559;SDS011;23398;50.928;7.084;2023-05-20T05:13:04;4.40;;;1.90;;
37559;SDS011;23398;50.928;7.084;2023-05-20T05:15:30;2.63;;;1.70;;
37559;SDS011;23398;50.928;7.084;2023-05-20T05:17:55;2.17;;;1.60;;
37559;SDS011;23398;50.928;7.084;2023-05-20T05:20:21;2.72;;;1.80;;
37559;SDS011;23398;50.928;7.084;2023-05-20T05:22:46;3.75;;;1.70;;
37559;SDS011;23398;50.928;7.084;2023-05-20T05:25:14;2.88;;;1.90;;
37559;SDS011;23398;50.928;7.084;2023-05-20T05:27:40;2.28;;;2.00;;
37559;SDS011;23398;50.928;7.084;2023-05-20T05:30:05;4.07;;;2.13;;
37559;SDS011;23398;50.928;7.084;2023-05-20T05:32:31;2.60;;;1.70;;
37559;SDS011;23398;50.928;7.084;2023-05-20T05:34:57;3.65;;;2.00;;
37559;SDS011;23398;50.928;7.084;2023-05-20T05:37:23;2.28;;;1.77;;
37559;SDS011;23398;50.928;7.084;2023-05-20T05:39:49;2.90;;;1.80;;
37559;SDS011;23398;50.928;7.084;2023-05-20T05:42:15;2.70;;;1.65;;
37559;SDS011;23398;50.928;7.084;2023-05-20T05:44:40;1.75;;;1.60;;
37559;SDS011;23398;50.928;7.084;2023-05-20T05:47:06;2.50;;;2.10;;
37559;SDS011;23398;50.928;7.084;2023-05-20T05:49:32;2.80;;;1.88;;
37559;SDS011;23398;50.928;7.084;2023-05-20T05:51:58;1.77;;;1.67;;
37559;SDS011;23398;50.928;7.084;2023-05-20T05:54:23;3.53;;;1.70;;
37559;SDS011;23398;50.928;7.084;2023-05-20T05:56:50;2.75;;;1.85;;
37559;SDS011;23398;50.928;7.084;2023-05-20T05:59:16;3.13;;;1.80;;
37559;SDS011;23398;50.928;7.084;2023-05-20T06:01:41;2.05;;;1.85;;
37559;SDS011;23398;50.928;7.084;2023-05-20T06:04:07;2.15;;;1.88;;
37559;SDS011;23398;50.928;7.084;2023-05-20T06:06:32;2.95;;;1.95;;
37559;SDS011;23398;50.928;7.084;2023-05-20T06:08:58;2.10;;;1.80;;
37559;SDS011;23398;50.928;7.084;2023-05-20T06:11:24;2.25;;;1.80;;
37559;SDS011;23398;50.928;7.084;2023-05-20T06:13:50;2.05;;;1.88;;
37559;SDS011;23398;50.928;7.084;2023-05-20T06:16:16;3.13;;;1.70;;
37559;SDS011;23398;50.928;7.084;2023-05-20T06:18:42;1.90;;;1.70;;
37559;SDS011;23398;50.928;7.084;2023-05-20T06:21:09;2.08;;;1.80;;
37559;SDS011;23398;50.928;7.084;2023-05-20T06:23:35;3.80;;;1.88;;
37559;SDS011;23398;50.928;7.084;2023-05-20T06:26:01;2.92;;;2.05;;
37559;SDS011;23398;50.928;7.084;2023-05-20T06:28:26;2.95;;;1.67;;
37559;SDS011;23398;50.928;7.084;2023-05-20T06:30:53;2.00;;;1.67;;
37559;SDS011;23398;50.928;7.084;2023-05-20T06:33:22;3.45;;;2.08;;
37559;SDS011;23398;50.928;7.084;2023-05-20T06:35:51;2.30;;;2.10;;
37559;SDS011;23398;50.928;7.084;2023-05-20T06:38:17;2.72;;;1.77;;
37559;SDS011;23398;50.928;7.084;2023-05-20T06:40:43;2.47;;;1.65;;
37559;SDS011;23398;50.928;7.084;2023-05-20T06:43:09;2.67;;;1.80;;
37559;SDS011;23398;50.928;7.084;2023-05-20T06:45:35;2.17;;;1.85;;
37559;SDS011;23398;50.928;7.084;2023-05-20T06:48:00;2.88;;;1.80;;
37559;SDS011;23398;50.928;7.084;2023-05-20T06:50:26;3.20;;;1.98;;
37559;SDS011;23398;50.928;7.084;2023-05-20T06:52:52;2.80;;;1.90;;
37559;SDS011;23398;50.928;7.084;2023-05-20T06:55:18;5.60;;;1.92;;
37559;SDS011;23398;50.928;7.084;2023-05-20T06:57:43;2.70;;;1.80;;
37559;SDS011;23398;50.928;7.084;2023-05-20T07:00:09;6.95;;;1.70;;
37559;SDS011;23398;50.928;7.084;2023-05-20T07:02:37;2.22;;;1.73;;
37559;SDS011;23398;50.928;7.084;2023-05-20T07:05:03;3.05;;;1.80;;
37559;SDS011;23398;50.928;7.084;2023-05-20T07:07:29;2.92;;;1.88;;
37559;SDS011;23398;50.928;7.084;2023-05-20T07:09:54;3.05;;;2.10;;
37559;SDS011;23398;50.928;7.084;2023-05-20T07:12:21;2.22;;;1.88;;
37559;SDS011;23398;50.928;7.084;2023-05-20T07:14:46;2.38;;;1.80;;
37559;SDS011;23398;50.928;7.084;2023-05-20T07:17:12;1.95;;;1.75;;
37559;SDS011;23398;50.928;7.084;2023-05-20T07:19:37;1.75;;;1.63;;
37559;SDS011;23398;50.928;7.084;2023-05-20T07:22:03;1.95;;;1.73;;
37559;SDS011;23398;50.928;7.084;2023-05-20T07:24:28;2.88;;;2.10;;
37559;SDS011;23398;50.928;7.084;2023-05-20T07:26:54;2.80;;;2.03;;
37559;SDS011;23398;50.928;7.084;2023-05-20T07:29:20;2.00;;;1.75;;
37559;SDS011;23398;50.928;7.084;2023-05-20T07:31:46;2.10;;;1.90;;
37559;SDS011;23398;50.928;7.084;2023-05-20T07:34:11;2.65;;;1.90;;
37559;SDS011;23398;50.928;7.084;2023-05-20T07:36:37;2.45;;;1.70;;
37559;SDS011;23398;50.928;7.084;2023-05-20T07:39:03;2.58;;;1.80;;
37559;SDS011;23398;50.928;7.084;2023-05-20T07:41:29;2.80;;;1.70;;
37559;SDS011;23398;50.928;7.084;2023-05-20T07:43:54;2.40;;;1.70;;
37559;SDS011;23398;50.928;7.084;2023-05-20T07:46:20;2.92;;;1.73;;
37559;SDS011;23398;50.928;7.084;2023-05-20T07:48:46;2.22;;;1.80;;
37559;SDS011;23398;50.928;7.084;2023-05-20T07:51:11;2.15;;;1.67;;
37559;SDS011;23398;50.928;7.084;2023-05-20T07:53:37;2.20;;;2.00;;
37559;SDS011;23398;50.928;7.084;2023-05-20T07:56:03;1.98;;;1.80;;
37559;SDS011;23398;50.928;7.084;2023-05-20T07:58:30;2.15;;;1.80;;
37559;SDS011;23398;50.928;7.084;2023-05-20T08:00:55;2.10;;;1.70;;
37559;SDS011;23398;50.928;7.084;2023-05-20T08:03:21;2.17;;;1.77;;
37559;SDS011;23398;50.928;7.084;2023-05-20T08:05:47;2.33;;;1.75;;
37559;SDS011;23398;50.928;7.084;2023-05-20T08:08:13;2.22;;;1.92;;
37559;SDS011;23398;50.928;7.084;2023-05-20T08:10:40;2.90;;;1.75;;
37559;SDS011;23398;50.928;7.084;2023-05-20T08:13:05;3.15;;;2.10;;
37559;SDS011;23398;50.928;7.084;2023-05-20T08:15:31;2.22;;;1.80;;
37559;SDS011;23398;50.928;7.084;2023-05-20T08:17:56;2.45;;;1.90;;
37559;SDS011;23398;50.928;7.084;2023-05-20T08:20:22;1.83;;;1.60;;
37559;SDS011;23398;50.928;7.084;2023-05-20T08:22:50;1.63;;;1.52;;
37559;SDS011;23398;50.928;7.084;2023-05-20T08:25:16;1.98;;;1.80;;
37559;SDS011;23398;50.928;7.084;2023-05-20T08:27:41;1.88;;;1.73;;
37559;SDS011;23398;50.928;7.084;2023-05-20T08:30:08;2.00;;;1.60;;
37559;SDS011;23398;50.928;7.084;2023-05-20T08:32:34;1.60;;;1.50;;
37559;SDS011;23398;50.928;7.084;2023-05-20T08:35:00;2.33;;;1.70;;
37559;SDS011;23398;50.928;7.084;2023-05-20T08:37:27;3.35;;;2.05;;
37559;SDS011;23398;50.928;7.084;2023-05-20T08:39:53;4.40;;;2.00;;
37559;SDS011;23398;50.928;7.084;2023-05-20T08:42:20;2.10;;;1.80;;
37559;SDS011;23398;50.928;7.084;2023-05-20T08:44:50;2.30;;;1.77;;
37559;SDS011;23398;50.928;7.084;2023-05-20T08:47:20;2.33;;;1.88;;
37559;SDS011;23398;50.928;7.084;2023-05-20T08:49:47;2.05;;;1.83;;
37559;SDS011;23398;50.928;7.084;2023-05-20T08:52:13;2.00;;;1.80;;
37559;SDS011;23398;50.928;7.084;2023-05-20T08:54:43;2.13;;;1.92;;
37559;SDS011;23398;50.928;7.084;2023-05-20T08:57:10;4.47;;;1.92;;
37559;SDS011;23398;50.928;7.084;2023-05-20T08:59:38;2.30;;;1.77;;
37559;SDS011;23398;50.928;7.084;2023-05-20T09:02:09;2.25;;;1.88;;
37559;SDS011;23398;50.928;7.084;2023-05-20T09:04:35;2.15;;;1.70;;
37559;SDS011;23398;50.928;7.084;2023-05-20T09:07:01;1.73;;;1.60;;
37559;SDS011;23398;50.928;7.084;2023-05-20T09:09:28;2.88;;;1.90;;
37559;SDS011;23398;50.928;7.084;2023-05-20T09:11:54;2.20;;;1.80;;
37559;SDS011;23398;50.928;7.084;2023-05-20T09:14:20;1.98;;;1.77;;
37559;SDS011;23398;50.928;7.084;2023-05-20T09:16:46;1.90;;;1.70;;
37559;SDS011;23398;50.928;7.084;2023-05-20T09:19:13;2.72;;;1.77;;
37559;SDS011;23398;50.928;7.084;2023-05-20T09:21:39;2.85;;;1.80;;
37559;SDS011;23398;50.928;7.084;2023-05-20T09:24:06;2.90;;;1.80;;
37559;SDS011;23398;50.928;7.084;2023-05-20T09:26:31;3.30;;;1.92;;
37559;SDS011;23398;50.928;7.084;2023-05-20T09:28:57;2.20;;;1.90;;
37559;SDS011;23398;50.928;7.084;2023-05-20T09:31:29;2.17;;;1.98;;
37559;SDS011;23398;50.928;7.084;2023-05-20T09:33:58;1.70;;;1.60;;
37559;SDS011;23398;50.928;7.084;2023-05-20T09:36:25;4.47;;;1.90;;
37559;SDS011;23398;50.928;7.084;2023-05-20T09:38:53;2.13;;;1.80;;
37559;SDS011;23398;50.928;7.084;2023-05-20T09:41:24;1.90;;;1.80;;
37559;SDS011;23398;50.928;7.084;2023-05-20T09:43:56;3.47;;;1.98;;
37559;SDS011;23398;50.928;7.084;2023-05-20T09:46:22;2.83;;;1.90;;
37559;SDS011;23398;50.928;7.084;2023-05-20T09:48:49;3.35;;;2.00;;
37559;SDS011;23398;50.928;7.084;2023-05-20T09:51:14;2.38;;;1.73;;
37559;SDS011;23398;50.928;7.084;2023-05-20T09:53:41;2.30;;;2.10;;
37559;SDS011;23398;50.928;7.084;2023-05-20T09:56:07;2.03;;;1.83;;
37559;SDS011;23398;50.928;7.084;2023-05-20T09:58:33;2.40;;;1.80;;
37559;SDS011;23398;50.928;7.084;2023-05-20T10:01:00;2.10;;;1.90;;
37559;SDS011;23398;50.928;7.084;2023-05-20T10:03:26;2.60;;;1.85;;
37559;SDS011;23398;50.928;7.084;2023-05-20T10:19:36;2.38;;;2.17;;
37559;SDS011;23398;50.928;7.084;2023-05-20T10:24:39;2.58;;;2.10;;
37559;SDS011;23398;50.928;7.084;2023-05-20T10:27:16;2.10;;;1.90;;
37559;SDS011;23398;50.928;7.084;2023-05-20T10:29:42;2.53;;;2.10;;
37559;SDS011;23398;50.928;7.084;2023-05-20T10:32:09;2.80;;;2.08;;
37559;SDS011;23398;50.928;7.084;2023-05-20T10:34:48;2.15;;;1.95;;
37559;SDS011;23398;50.928;7.084;2023-05-20T10:37:33;5.38;;;2.05;;
37559;SDS011;23398;50.928;7.084;2023-05-20T10:40:09;4.65;;;2.17;;
37559;SDS011;23398;50.928;7.084;2023-05-20T10:42:37;2.25;;;2.00;;
37559;SDS011;23398;50.928;7.084;2023-05-20T10:45:03;2.28;;;1.92;;
37559;SDS011;23398;50.928;7.084;2023-05-20T10:47:30;2.17;;;1.98;;
37559;SDS011;23398;50.928;7.084;2023-05-20T10:49:56;2.75;;;2.00;;
37559;SDS011;23398;50.928;7.084;2023-05-20T10:52:22;2.10;;;1.70;;
37559;SDS011;23398;50.928;7.084;2023-05-20T10:57:17;2.35;;;2.00;;
37559;SDS011;23398;50.928;7.084;2023-05-20T10:59:43;2.80;;;2.15;;
37559;SDS011;23398;50.928;7.084;2023-05-20T11:02:09;3.05;;;2.70;;
37559;SDS011;23398;50.928;7.084;2023-05-20T11:04:36;5.03;;;2.65;;
37559;SDS011;23398;50.928;7.084;2023-05-20T11:07:03;3.00;;;2.70;;
37559;SDS011;23398;50.928;7.084;2023-05-20T11:09:29;2.92;;;2.42;;
37559;SDS011;23398;50.928;7.084;2023-05-20T11:11:55;2.95;;;2.53;;
37559;SDS011;23398;50.928;7.084;2023-05-20T11:14:21;2.53;;;2.33;;
37559;SDS011;23398;50.928;7.084;2023-05-20T11:16:55;3.10;;;2.40;;
37559;SDS011;23398;50.928;7.084;2023-05-20T11:19:26;3.42;;;2.45;;
37559;SDS011;23398;50.928;7.084;2023-05-20T11:21:52;2.38;;;2.17;;
37559;SDS011;23398;50.928;7.084;2023-05-20T11:24:22;2.80;;;2.30;;
37559;SDS011;23398;50.928;7.084;2023-05-20T11:26:50;3.40;;;2.40;;
37559;SDS011;23398;50.928;7.084;2023-05-20T11:29:16;2.88;;;2.35;;
37559;SDS011;23398;50.928;7.084;2023-05-20T11:31:44;2.42;;;2.22;;
37559;SDS011;23398;50.928;7.084;2023-05-20T11:34:11;2.88;;;2.50;;
37559;SDS011;23398;50.928;7.084;2023-05-20T11:36:42;2.30;;;1.95;;
37559;SDS011;23398;50.928;7.084;2023-05-20T11:39:08;3.00;;;2.60;;
37559;SDS011;23398;50.928;7.084;2023-05-20T11:41:36;2.75;;;2.55;;
37559;SDS011;23398;50.928;7.084;2023-05-20T11:44:03;2.47;;;2.28;;
37559;SDS011;23398;50.928;7.084;2023-05-20T11:46:29;2.70;;;2.50;;
37559;SDS011;23398;50.928;7.084;2023-05-20T11:48:54;2.95;;;2.63;;
37559;SDS011;23398;50.928;7.084;2023-05-20T11:51:30;2.65;;;2.35;;
37559;SDS011;23398;50.928;7.084;2023-05-20T11:54:00;4.82;;;2.40;;
37559;SDS011;23398;50.928;7.084;2023-05-20T11:56:29;2.85;;;2.35;;
37559;SDS011;23398;50.928;7.084;2023-05-20T11:58:58;2.72;;;2.20;;
37559;SDS011;23398;50.928;7.084;2023-05-20T12:01:25;3.83;;;2.28;;
37559;SDS011;23398;50.928;7.084;2023-05-20T12:03:52;2.28;;;2.08;;
37559;SDS011;23398;50.928;7.084;2023-05-20T12:06:18;2.63;;;2.42;;
37559;SDS011;23398;50.928;7.084;2023-05-20T12:08:44;2.78;;;2.47;;
37559;SDS011;23398;50.928;7.084;2023-05-20T12:11:10;2.45;;;2.25;;
37559;SDS011;23398;50.928;7.084;2023-05-20T12:13:36;2.58;;;2.38;;
37559;SDS011;23398;50.928;7.084;2023-05-20T12:16:02;6.45;;;2.35;;
37559;SDS011;23398;50.928;7.084;2023-05-20T12:18:30;2.65;;;2.42;;
37559;SDS011;23398;50.928;7.084;2023-05-20T12:20:56;2.70;;;2.50;;
37559;SDS011;23398;50.928;7.084;2023-05-20T12:23:22;2.65;;;2.45;;
37559;SDS011;23398;50.928;7.084;2023-05-20T12:25:48;2.90;;;2.60;;
37559;SDS011;23398;50.928;7.084;2023-05-20T12:28:14;2.50;;;2.30;;
37559;SDS011;23398;50.928;7.084;2023-05-20T12:30:41;3.65;;;2.50;;
37559;SDS011;23398;50.928;7.084;2023-05-20T12:33:06;2.92;;;2.53;;
37559;SDS011;23398;50.928;7.084;2023-05-20T12:35:37;2.70;;;2.50;;
37559;SDS011;23398;50.928;7.084;2023-05-20T12:38:05;3.20;;;2.42;;
37559;SDS011;23398;50.928;7.084;2023-05-20T12:40:31;2.75;;;2.40;;
37559;SDS011;23398;50.928;7.084;2023-05-20T12:42:57;2.90;;;2.60;;
37559;SDS011;23398;50.928;7.084;2023-05-20T12:45:25;3.92;;;2.60;;
37559;SDS011;23398;50.928;7.084;2023-05-20T12:47:51;2.65;;;2.45;;
37559;SDS011;23398;50.928;7.084;2023-05-20T12:50:17;5.05;;;2.40;;
37559;SDS011;23398;50.928;7.084;2023-05-20T12:52:42;4.18;;;2.70;;
37559;SDS011;23398;50.928;7.084;2023-05-20T12:55:08;2.88;;;2.58;;
37559;SDS011;23398;50.928;7.084;2023-05-20T12:57:38;2.67;;;2.42;;
37559;SDS011;23398;50.928;7.084;2023-05-20T13:00:08;2.83;;;2.53;;
37559;SDS011;23398;50.928;7.084;2023-05-20T13:02:34;2.47;;;2.28;;
37559;SDS011;23398;50.928;7.084;2023-05-20T13:05:00;4.03;;;2.50;;
37559;SDS011;23398;50.928;7.084;2023-05-20T13:07:26;5.10;;;2.50;;
37559;SDS011;23398;50.928;7.084;2023-05-20T13:09:52;7.80;;;3.47;;
37559;SDS011;23398;50.928;7.084;2023-05-20T13:12:17;3.95;;;2.55;;
37559;SDS011;23398;50.928;7.084;2023-05-20T13:14:43;2.90;;;2.63;;
37559;SDS011;23398;50.928;7.084;2023-05-20T13:17:09;3.08;;;2.33;;
37559;SDS011;23398;50.928;7.084;2023-05-20T13:19:35;2.63;;;2.25;;
37559;SDS011;23398;50.928;7.084;2023-05-20T13:22:02;2.35;;;2.15;;
37559;SDS011;23398;50.928;7.084;2023-05-20T13:24:29;3.92;;;2.50;;
37559;SDS011;23398;50.928;7.084;2023-05-20T13:26:55;3.25;;;2.75;;
37559;SDS011;23398;50.928;7.084;2023-05-20T13:29:21;3.08;;;2.70;;
37559;SDS011;23398;50.928;7.084;2023-05-20T13:31:46;2.63;;;2.15;;
37559;SDS011;23398;50.928;7.084;2023-05-20T13:34:12;2.90;;;2.60;;
37559;SDS011;23398;50.928;7.084;2023-05-20T13:36:38;2.80;;;2.60;;
37559;SDS011;23398;50.928;7.084;2023-05-20T13:39:04;2.97;;;2.65;;
37559;SDS011;23398;50.928;7.084;2023-05-20T13:41:30;3.42;;;2.50;;
37559;SDS011;23398;50.928;7.084;2023-05-20T13:43:56;3.80;;;2.45;;
37559;SDS011;23398;50.928;7.084;2023-05-20T13:46:22;2.67;;;2.40;;
37559;SDS011;23398;50.928;7.084;2023-05-20T13:48:47;3.38;;;2.58;;
37559;SDS011;23398;50.928;7.084;2023-05-20T13:51:13;2.60;;;2.33;;
37559;SDS011;23398;50.928;7.084;2023-05-20T13:53:39;3.38;;;2.33;;
37559;SDS011;23398;50.928;7.084;2023-05-20T13:56:04;4.00;;;2.70;;
37559;SDS011;23398;50.928;7.084;2023-05-20T13:58:33;4.25;;;2.58;;
37559;SDS011;23398;50.928;7.084;2023-05-20T14:01:02;3.17;;;2.88;;
37559;SDS011;23398;50.928;7.084;2023-05-20T14:03:29;2.80;;;2.60;;
37559;SDS011;23398;50.928;7.084;2023-05-20T14:05:56;3.15;;;2.80;;
37559;SDS011;23398;50.928;7.084;2023-05-20T14:08:23;5.40;;;2.70;;
37559;SDS011;23398;50.928;7.084;2023-05-20T14:10:48;5.22;;;2.50;;
37559;SDS011;23398;50.928;7.084;2023-05-20T14:13:18;2.60;;;2.40;;
37559;SDS011;23398;50.928;7.084;2023-05-20T14:15:47;3.20;;;2.70;;
37559;SDS011;23398;50.928;7.084;2023-05-20T14:18:14;6.47;;;2.67;;
37559;SDS011;23398;50.928;7.084;2023-05-20T14:20:40;15.18;;;3.47;;
37559;SDS011;23398;50.928;7.084;2023-05-20T14:23:06;4.20;;;3.05;;
37559;SDS011;23398;50.928;7.084;2023-05-20T14:25:31;12.50;;;3.10;;
37559;SDS011;23398;50.928;7.084;2023-05-20T14:27:57;4.30;;;2.70;;
37559;SDS011;23398;50.928;7.084;2023-05-20T14:30:22;4.30;;;2.58;;
37559;SDS011;23398;50.928;7.084;2023-05-20T14:32:49;2.80;;;2.20;;
37559;SDS011;23398;50.928;7.084;2023-05-20T14:35:14;4.40;;;2.72;;
37559;SDS011;23398;50.928;7.084;2023-05-20T14:37:40;3.92;;;2.35;;
37559;SDS011;23398;50.928;7.084;2023-05-20T14:40:06;2.45;;;2.25;;
37559;SDS011;23398;50.928;7.084;2023-05-20T14:42:32;3.90;;;2.47;;
37559;SDS011;23398;50.928;7.084;2023-05-20T14:44:58;2.50;;;2.03;;
37559;SDS011;23398;50.928;7.084;2023-05-20T14:47:23;4.88;;;2.75;;
37559;SDS011;23398;50.928;7.084;2023-05-20T14:49:50;3.17;;;2.70;;
37559;SDS011;23398;50.928;7.084;2023-05-20T14:52:16;2.90;;;2.50;;
37559;SDS011;23398;50.928;7.084;2023-05-20T14:54:42;3.58;;;2.88;;
37559;SDS011;23398;50.928;7.084;2023-05-20T14:57:08;3.85;;;2.58;;
37559;SDS011;23398;50.928;7.084;2023-05-20T14:59:35;2.63;;;2.42;;
37559;SDS011;23398;50.928;7.084;2023-05-20T15:02:01;2.60;;;2.30;;
37559;SDS011;23398;50.928;7.084;2023-05-20T15:04:26;2.72;;;2.40;;